createdAt,value
2019-02-05T00:01:15.173Z,2.00
2019-02-05T00:03:44.620Z,2.00
2019-02-05T00:06:12.614Z,1.90
2019-02-05T00:08:40.709Z,1.80
2019-02-05T00:11:08.541Z,1.70
2019-02-05T00:13:36.212Z,1.60
2019-02-05T00:16:04.281Z,1.70
2019-02-05T00:18:31.956Z,1.60
2019-02-05T00:20:59.731Z,1.70
2019-02-05T00:23:27.537Z,1.70
2019-02-05T00:26:05.662Z,1.80
2019-02-05T00:28:25.118Z,1.80
2019-02-05T00:30:53.006Z,1.90
2019-02-05T00:33:20.881Z,1.90
2019-02-05T00:35:48.644Z,1.90
2019-02-05T00:38:16.384Z,2.00
2019-02-05T00:40:44.759Z,2.10
2019-02-05T00:43:12.497Z,2.10
2019-02-05T00:45:40.170Z,2.10
2019-02-05T00:48:08.153Z,2.10
2019-02-05T00:50:36.020Z,2.10
2019-02-05T00:53:04.033Z,2.20
2019-02-05T00:55:31.859Z,2.20
2019-02-05T00:58:00.169Z,2.10
2019-02-05T01:00:29.233Z,2.10
2019-02-05T01:02:58.394Z,2.10
2019-02-05T01:05:26.196Z,2.00
2019-02-05T01:07:54.125Z,2.10
2019-02-05T01:10:22.909Z,2.10
2019-02-05T01:12:51.639Z,2.10
2019-02-05T01:15:21.702Z,2.10
2019-02-05T01:17:51.320Z,2.10
2019-02-05T01:20:19.169Z,2.00
2019-02-05T01:22:47.666Z,2.00
2019-02-05T01:25:16.548Z,2.00
2019-02-05T01:27:45.449Z,2.00
2019-02-05T01:30:16.304Z,2.00
2019-02-05T01:32:45.577Z,1.90
2019-02-05T01:35:13.347Z,1.80
2019-02-05T01:37:41.519Z,1.80
2019-02-05T01:40:12.138Z,1.70
2019-02-05T01:42:41.794Z,1.70
2019-02-05T01:45:12.636Z,1.70
2019-02-05T01:47:41.910Z,1.70
2019-02-05T01:50:12.210Z,1.70
2019-02-05T01:52:41.586Z,1.70
2019-02-05T01:55:10.298Z,1.70
2019-02-05T01:57:38.593Z,1.60
2019-02-05T02:00:09.655Z,1.60
2019-02-05T02:02:38.910Z,1.60
2019-02-05T02:05:06.697Z,1.50
2019-02-05T02:07:34.777Z,1.50
2019-02-05T02:10:03.158Z,1.50
2019-02-05T02:12:33.003Z,1.50
2019-02-05T02:15:00.835Z,1.40
2019-02-05T02:17:30.090Z,1.50
2019-02-05T02:19:57.909Z,1.40
2019-02-05T02:22:25.569Z,1.30
2019-02-05T02:24:53.330Z,1.30
2019-02-05T02:27:21.002Z,1.30
2019-02-05T02:29:49.464Z,1.20
2019-02-05T02:32:17.133Z,1.20
2019-02-05T02:34:44.901Z,1.30
2019-02-05T02:37:12.654Z,1.30
2019-02-05T02:39:40.311Z,1.20
2019-02-05T02:42:08.552Z,1.20
2019-02-05T02:44:36.340Z,1.00
2019-02-05T02:47:04.279Z,0.90
2019-02-05T02:49:33.857Z,0.80
2019-02-05T02:52:01.709Z,0.90
2019-02-05T02:54:29.591Z,0.90
2019-02-05T02:57:04.513Z,1.00
2019-02-05T02:59:26.998Z,1.00
2019-02-05T03:01:54.753Z,1.00
2019-02-05T03:04:22.537Z,0.90
2019-02-05T03:06:50.722Z,0.90
2019-02-05T03:09:18.474Z,0.80
2019-02-05T03:11:46.318Z,0.80
2019-02-05T03:14:14.013Z,0.70
2019-02-05T03:16:41.801Z,0.70
2019-02-05T03:19:09.492Z,0.90
2019-02-05T03:21:37.393Z,0.90
2019-02-05T03:24:05.190Z,0.80
2019-02-05T03:26:33.053Z,0.80
2019-02-05T03:29:00.718Z,0.80
2019-02-05T03:31:28.583Z,0.80
2019-02-05T03:33:56.517Z,0.70
2019-02-05T03:36:24.200Z,0.70
2019-02-05T03:38:51.952Z,0.60
2019-02-05T03:41:20.012Z,0.70
2019-02-05T03:43:47.948Z,0.70
2019-02-05T03:46:16.552Z,0.60
2019-02-05T03:48:46.968Z,0.70
2019-02-05T03:51:54.515Z,0.70
2019-02-05T03:55:10.636Z,0.60
2019-02-05T03:58:14.204Z,0.60
2019-02-05T04:01:12.912Z,0.50
2019-02-05T04:04:14.045Z,0.30
2019-02-05T04:07:02.257Z,0.10
2019-02-05T04:10:02.643Z,0.10
2019-02-05T04:13:11.585Z,0.20
2019-02-05T04:16:15.680Z,0.20
2019-02-05T04:19:18.038Z,0.20
2019-02-05T04:22:14.918Z,0.20
2019-02-05T04:25:28.359Z,0.40
2019-02-05T04:28:34.195Z,0.40
2019-02-05T04:31:29.498Z,0.30
2019-02-05T04:34:55.914Z,0.30
2019-02-05T04:38:25.309Z,0.30
2019-02-05T04:41:16.980Z,0.20
2019-02-05T04:44:28.142Z,0.20
2019-02-05T04:47:37.722Z,0.00
2019-02-05T04:50:23.914Z,0.10
2019-02-05T04:53:40.381Z,0.10
2019-02-05T04:57:00.331Z,0.10
2019-02-05T05:00:20.326Z,0.10
2019-02-05T05:03:40.581Z,0.00
2019-02-05T05:06:47.431Z,0.10
2019-02-05T05:09:55.459Z,0.10
2019-02-05T05:12:24.965Z,0.10
2019-02-05T05:14:53.233Z,0.00
2019-02-05T05:17:21.363Z,0.00
2019-02-05T05:19:49.360Z,0.00
2019-02-05T05:22:17.710Z,0.00
2019-02-05T05:24:45.680Z,0.00
2019-02-05T05:27:16.056Z,0.10
2019-02-05T05:29:44.515Z,0.10
2019-02-05T05:32:12.682Z,0.00
2019-02-05T05:34:40.878Z,-0.20
2019-02-05T05:37:07.615Z,-0.20
2019-02-05T05:39:35.157Z,-0.20
2019-02-05T05:42:03.677Z,-0.20
2019-02-05T05:44:31.526Z,-0.20
2019-02-05T05:46:59.265Z,-0.20
2019-02-05T05:49:29.438Z,-0.20
2019-02-05T05:51:57.186Z,-0.20
2019-02-05T05:54:24.870Z,-0.20
2019-02-05T05:56:52.647Z,-0.20
2019-02-05T05:59:20.506Z,-0.10
2019-02-05T06:01:48.265Z,-0.10
2019-02-05T06:04:16.028Z,-0.30
2019-02-05T06:06:44.215Z,-0.30
2019-02-05T06:09:12.083Z,-0.30
2019-02-05T06:11:40.058Z,-0.30
2019-02-05T06:14:08.034Z,-0.30
2019-02-05T06:16:35.766Z,-0.40
2019-02-05T06:19:03.512Z,-0.30
2019-02-05T06:21:31.286Z,-0.30
2019-02-05T06:23:59.653Z,-0.30
2019-02-05T06:26:27.433Z,-0.30
2019-02-05T06:28:55.293Z,-0.30
2019-02-05T06:31:22.969Z,-0.40
2019-02-05T06:33:50.929Z,-0.40
2019-02-05T06:36:18.701Z,-0.50
2019-02-05T06:38:46.647Z,-0.40
2019-02-05T06:41:14.505Z,-0.30
2019-02-05T06:43:42.353Z,-0.30
2019-02-05T06:46:10.124Z,-0.30
2019-02-05T06:48:37.786Z,-0.20
2019-02-05T06:51:06.557Z,-0.20
2019-02-05T06:53:34.338Z,-0.30
2019-02-05T06:56:02.169Z,-0.30
2019-02-05T06:58:30.039Z,-0.20
2019-02-05T07:00:58.428Z,-0.30
2019-02-05T07:03:26.303Z,-0.30
2019-02-05T07:05:54.028Z,-0.30
2019-02-05T07:08:21.805Z,-0.30
2019-02-05T07:10:49.767Z,-0.30
2019-02-05T07:13:17.685Z,-0.30
2019-02-05T07:15:45.315Z,-0.30
2019-02-05T07:18:13.090Z,-0.30
2019-02-05T07:20:40.913Z,-0.30
2019-02-05T07:23:08.553Z,-0.30
2019-02-05T07:25:36.386Z,-0.30
2019-02-05T07:28:04.358Z,-0.30
2019-02-05T07:30:32.277Z,-0.30
2019-02-05T07:32:59.947Z,-0.30
2019-02-05T07:35:28.267Z,-0.30
2019-02-05T07:37:56.451Z,-0.30
2019-02-05T07:40:24.406Z,-0.30
2019-02-05T07:42:52.294Z,-0.20
2019-02-05T07:45:20.774Z,-0.20
2019-02-05T07:47:49.514Z,-0.20
2019-02-05T07:50:22.049Z,-0.20
2019-02-05T07:52:51.505Z,-0.20
2019-02-05T07:55:19.351Z,-0.20
2019-02-05T07:57:47.582Z,-0.20
2019-02-05T08:00:17.974Z,-0.10
2019-02-05T08:02:47.422Z,-0.10
2019-02-05T08:05:17.265Z,0.00
2019-02-05T08:07:46.997Z,0.00
2019-02-05T08:10:17.213Z,0.00
2019-02-05T08:12:46.834Z,0.10
2019-02-05T08:15:17.238Z,0.10
2019-02-05T08:17:46.541Z,0.10
2019-02-05T08:20:14.386Z,0.10
2019-02-05T08:22:42.317Z,0.10
2019-02-05T08:25:11.863Z,0.10
2019-02-05T08:27:40.369Z,0.10
2019-02-05T08:30:16.743Z,0.10
2019-02-05T08:32:46.153Z,0.10
2019-02-05T08:35:14.677Z,0.20
2019-02-05T08:37:43.417Z,0.20
2019-02-05T08:40:14.034Z,0.30
2019-02-05T08:42:43.385Z,0.20
2019-02-05T08:45:14.337Z,0.20
2019-02-05T08:47:44.074Z,0.20
2019-02-05T08:50:14.787Z,0.30
2019-02-05T08:52:44.202Z,0.30
2019-02-05T08:55:13.518Z,0.30
2019-02-05T08:57:42.783Z,0.40
2019-02-05T09:00:14.188Z,0.50
2019-02-05T09:02:43.761Z,0.50
2019-02-05T09:05:11.680Z,0.50
2019-02-05T09:07:40.361Z,0.50
2019-02-05T09:10:10.925Z,0.50
2019-02-05T09:12:40.284Z,0.60
2019-02-05T09:15:09.525Z,0.80
2019-02-05T09:17:37.995Z,1.00
2019-02-05T09:20:08.433Z,1.10
2019-02-05T09:22:37.785Z,1.10
2019-02-05T09:25:06.550Z,1.40
2019-02-05T09:27:35.791Z,1.90
2019-02-05T09:30:05.150Z,2.50
2019-02-05T09:32:35.114Z,3.10
2019-02-05T09:35:04.326Z,3.70
2019-02-05T09:37:33.892Z,4.30
2019-02-05T09:40:01.753Z,4.80
2019-02-05T09:42:31.188Z,5.20
2019-02-05T09:44:59.073Z,5.50
2019-02-05T09:47:26.880Z,5.60
2019-02-05T09:49:54.644Z,5.60
2019-02-05T09:52:22.304Z,5.70
2019-02-05T09:54:50.442Z,5.60
2019-02-05T09:57:18.303Z,5.60
2019-02-05T09:59:45.945Z,5.50
2019-02-05T10:02:13.673Z,5.30
2019-02-05T10:04:41.321Z,5.00
2019-02-05T10:07:09.050Z,4.90
2019-02-05T10:09:36.801Z,4.70
2019-02-05T10:12:05.612Z,4.40
2019-02-05T10:14:33.789Z,4.20
2019-02-05T10:17:01.643Z,4.00
2019-02-05T10:19:29.604Z,3.90
2019-02-05T10:21:57.450Z,3.90
2019-02-05T10:24:25.290Z,4.00
2019-02-05T10:26:53.328Z,4.00
2019-02-05T10:29:21.322Z,4.00
2019-02-05T10:31:49.362Z,3.90
2019-02-05T10:34:17.113Z,3.90
2019-02-05T10:36:44.955Z,4.10
2019-02-05T10:39:13.226Z,4.10
2019-02-05T10:41:41.380Z,4.20
2019-02-05T10:44:09.358Z,4.30
2019-02-05T10:46:37.405Z,4.30
2019-02-05T10:49:05.369Z,4.40
2019-02-05T10:51:33.624Z,4.40
2019-02-05T10:54:01.546Z,4.40
2019-02-05T10:56:29.871Z,4.50
2019-02-05T10:58:57.825Z,4.60
2019-02-05T11:01:25.586Z,4.60
2019-02-05T11:03:53.562Z,4.70
2019-02-05T11:06:21.353Z,4.80
2019-02-05T11:08:49.282Z,5.00
2019-02-05T11:11:17.210Z,5.10
2019-02-05T11:13:45.031Z,5.30
2019-02-05T11:16:12.722Z,5.30
2019-02-05T11:18:40.461Z,5.40
2019-02-05T11:21:08.260Z,5.50
2019-02-05T11:23:36.196Z,5.60
2019-02-05T11:26:04.088Z,5.70
2019-02-05T11:28:32.510Z,5.70
2019-02-05T11:31:00.317Z,5.90
2019-02-05T11:33:28.163Z,6.00
2019-02-05T11:35:55.948Z,6.10
2019-02-05T11:38:23.679Z,6.20
2019-02-05T11:40:51.698Z,6.20
2019-02-05T11:43:19.737Z,6.10
2019-02-05T11:45:47.670Z,6.20
2019-02-05T11:48:17.016Z,6.40
2019-02-05T11:50:45.158Z,6.50
2019-02-05T11:53:13.053Z,6.50
2019-02-05T11:55:41.008Z,6.40
2019-02-05T11:58:08.775Z,6.20
2019-02-05T12:01:02.195Z,6.20
2019-02-05T12:03:31.222Z,6.00
2019-02-05T12:05:59.157Z,5.90
2019-02-05T12:08:27.239Z,5.90
2019-02-05T12:10:55.081Z,6.10
2019-02-05T12:13:22.828Z,6.10
2019-02-05T12:15:50.696Z,6.10
2019-02-05T12:18:18.441Z,6.00
2019-02-05T12:20:46.352Z,5.90
2019-02-05T12:23:14.072Z,6.00
2019-02-05T12:25:42.020Z,6.00
2019-02-05T12:28:09.877Z,5.90
2019-02-05T12:30:44.826Z,5.80
2019-02-05T12:33:07.674Z,6.00
2019-02-05T12:35:35.813Z,6.00
2019-02-05T12:38:04.966Z,5.90
2019-02-05T12:40:32.891Z,5.80
2019-02-05T12:43:01.090Z,5.90
2019-02-05T12:45:29.946Z,5.90
2019-02-05T12:47:59.379Z,6.10
2019-02-05T12:50:29.491Z,6.30
2019-02-05T12:53:04.757Z,6.40
2019-02-05T12:55:32.776Z,6.60
2019-02-05T12:58:03.179Z,6.80
2019-02-05T13:00:36.829Z,7.00
2019-02-05T13:03:09.341Z,7.10
2019-02-05T13:05:39.810Z,7.10
2019-02-05T13:08:08.762Z,7.20
2019-02-05T13:10:39.255Z,7.20
2019-02-05T13:13:08.865Z,7.40
2019-02-05T13:15:36.725Z,7.30
2019-02-05T13:18:04.997Z,7.40
2019-02-05T13:20:33.339Z,7.40
2019-02-05T13:23:02.635Z,7.40
2019-02-05T13:25:31.809Z,7.30
2019-02-05T13:27:59.841Z,7.50
2019-02-05T13:30:29.641Z,7.60
2019-02-05T13:32:58.779Z,7.60
2019-02-05T13:35:27.246Z,7.70
2019-02-05T13:37:55.445Z,7.80
2019-02-05T13:40:24.177Z,7.80
2019-02-05T13:42:53.559Z,8.00
2019-02-05T13:45:24.102Z,8.10
2019-02-05T13:47:53.369Z,8.20
2019-02-05T13:50:33.099Z,8.30
2019-02-05T13:52:56.879Z,8.40
2019-02-05T13:55:29.746Z,8.50
2019-02-05T13:57:59.531Z,8.40
2019-02-05T14:00:35.762Z,8.40
2019-02-05T14:03:06.906Z,8.40
2019-02-05T14:05:36.081Z,8.40
2019-02-05T14:08:04.344Z,8.40
2019-02-05T14:10:32.984Z,8.50
2019-02-05T14:13:02.395Z,8.50
2019-02-05T14:15:32.708Z,8.40
2019-02-05T14:18:02.243Z,8.40
2019-02-05T14:20:31.034Z,8.40
2019-02-05T14:22:58.892Z,8.30
2019-02-05T14:25:26.688Z,8.00
2019-02-05T14:27:54.415Z,7.70
2019-02-05T14:30:30.634Z,7.70
2019-02-05T14:33:00.052Z,7.60
2019-02-05T14:35:28.541Z,7.50
2019-02-05T14:37:56.862Z,7.60
2019-02-05T14:40:24.886Z,7.70
2019-02-05T14:42:53.459Z,7.60
2019-02-05T14:45:21.221Z,7.80
2019-02-05T14:47:49.584Z,7.90
2019-02-05T14:50:20.895Z,7.80
2019-02-05T14:52:50.479Z,7.90
2019-02-05T14:55:18.282Z,7.90
2019-02-05T14:57:46.179Z,8.00
2019-02-05T15:00:26.217Z,7.90
2019-02-05T15:02:55.897Z,7.80
2019-02-05T15:05:23.818Z,7.70
2019-02-05T15:07:51.830Z,7.40
2019-02-05T15:10:20.888Z,7.40
2019-02-05T15:12:49.354Z,7.50
2019-02-05T15:15:17.622Z,7.60
2019-02-05T15:17:47.194Z,7.80
2019-02-05T15:20:18.711Z,7.90
2019-02-05T15:22:48.114Z,7.90
2019-02-05T15:25:15.984Z,8.00
2019-02-05T15:27:43.778Z,7.90
2019-02-05T15:30:18.086Z,7.80
2019-02-05T15:33:09.787Z,7.90
2019-02-05T15:35:41.799Z,7.90
2019-02-05T15:38:11.189Z,7.90
2019-02-05T15:40:39.188Z,7.80
2019-02-05T15:43:07.358Z,7.80
2019-02-05T15:45:35.205Z,7.80
2019-02-05T15:48:02.990Z,7.70
2019-02-05T15:50:30.934Z,7.60
2019-02-05T15:52:58.742Z,7.40
2019-02-05T15:55:26.512Z,7.30
2019-02-05T15:57:54.219Z,7.20
2019-02-05T16:00:22.205Z,7.10
2019-02-05T16:02:50.790Z,7.00
2019-02-05T16:05:18.655Z,7.00
2019-02-05T16:07:46.339Z,6.90
2019-02-05T16:10:14.780Z,6.80
2019-02-05T16:15:12.236Z,6.60
2019-02-05T16:17:40.129Z,6.60
2019-02-05T16:20:09.159Z,6.50
2019-02-05T16:22:38.626Z,6.50
2019-02-05T16:25:09.051Z,6.50
2019-02-05T16:27:38.343Z,6.50
2019-02-05T16:30:12.815Z,6.40
2019-02-05T16:32:41.722Z,6.30
2019-02-05T16:35:09.826Z,6.20
2019-02-05T16:37:37.996Z,6.10
2019-02-05T16:40:09.791Z,6.00
2019-02-05T16:42:39.248Z,6.00
2019-02-05T16:45:09.905Z,5.90
2019-02-05T16:47:39.238Z,5.80
2019-02-05T16:50:11.498Z,5.70
2019-02-05T16:52:40.855Z,5.60
2019-02-05T16:55:08.914Z,5.50
2019-02-05T16:57:36.898Z,5.40
2019-02-05T17:00:13.497Z,5.40
2019-02-05T17:02:42.829Z,5.30
2019-02-05T17:05:11.430Z,5.20
2019-02-05T17:07:40.166Z,5.10
2019-02-05T17:10:09.392Z,5.10
2019-02-05T17:12:38.764Z,5.10
2019-02-05T17:15:08.762Z,5.00
2019-02-05T17:17:38.155Z,5.00
2019-02-05T17:20:08.730Z,4.90
2019-02-05T17:22:38.028Z,4.90
2019-02-05T17:25:06.778Z,4.90
2019-02-05T17:27:36.226Z,4.80
2019-02-05T17:30:08.343Z,4.80
2019-02-05T17:32:40.365Z,4.80
2019-02-05T17:35:07.880Z,4.80
2019-02-05T17:37:36.162Z,4.70
2019-02-05T17:40:05.653Z,4.70
2019-02-05T17:42:35.149Z,4.60
2019-02-05T17:45:05.556Z,4.60
2019-02-05T17:47:34.874Z,4.50
2019-02-05T17:50:03.122Z,4.50
2019-02-05T17:52:32.438Z,4.40
2019-02-05T17:55:00.384Z,4.30
2019-02-05T17:57:28.237Z,4.30
2019-02-05T17:59:56.123Z,4.30
2019-02-05T18:02:23.798Z,4.20
2019-02-05T18:04:51.665Z,4.20
2019-02-05T18:07:19.523Z,4.10
2019-02-05T18:09:47.411Z,4.10
2019-02-05T18:12:15.201Z,4.10
2019-02-05T18:14:42.972Z,4.10
2019-02-05T18:17:10.901Z,4.10
2019-02-05T18:19:38.825Z,4.10
2019-02-05T18:22:08.008Z,4.10
2019-02-05T18:24:36.164Z,4.10
2019-02-05T18:27:04.287Z,4.10
2019-02-05T18:29:32.209Z,4.10
2019-02-05T18:32:00.376Z,4.00
2019-02-05T18:34:28.222Z,4.10
2019-02-05T18:36:56.245Z,4.00
2019-02-05T18:39:24.326Z,4.00
2019-02-05T18:41:52.400Z,3.90
2019-02-05T18:44:20.165Z,3.90
2019-02-05T18:46:48.078Z,3.90
2019-02-05T18:49:16.392Z,3.80
2019-02-05T18:51:44.303Z,3.70
2019-02-05T18:54:12.310Z,3.70
2019-02-05T18:56:40.054Z,3.50
2019-02-05T18:59:07.916Z,3.40
2019-02-05T19:01:35.751Z,3.40
2019-02-05T19:04:03.917Z,3.50
2019-02-05T19:06:32.516Z,3.60
2019-02-05T19:09:00.929Z,3.60
2019-02-05T19:11:30.248Z,3.60
2019-02-05T19:13:58.014Z,3.60
2019-02-05T19:16:32.074Z,3.60
2019-02-05T19:18:59.862Z,3.50
2019-02-05T19:21:28.396Z,3.50
2019-02-05T19:24:04.580Z,3.50
2019-02-05T19:26:41.692Z,3.40
2019-02-05T19:29:18.429Z,3.40
2019-02-05T19:31:40.311Z,3.40
2019-02-05T19:34:09.033Z,3.40
2019-02-05T19:36:37.075Z,3.30
2019-02-05T19:39:07.080Z,3.20
2019-02-05T19:41:34.980Z,3.20
2019-02-05T19:44:03.031Z,3.20
2019-02-05T19:46:59.634Z,3.10
2019-02-05T19:49:39.691Z,3.10
2019-02-05T19:52:07.400Z,3.10
2019-02-05T19:54:35.322Z,3.00
2019-02-05T19:57:03.314Z,2.90
2019-02-05T19:59:31.229Z,2.80
2019-02-05T20:01:59.473Z,2.80
2019-02-05T20:04:27.417Z,2.70
2019-02-05T20:06:55.339Z,2.80
2019-02-05T20:09:23.249Z,2.90
2019-02-05T20:11:51.147Z,2.90
2019-02-05T20:14:18.950Z,2.90
2019-02-05T20:16:46.844Z,2.90
2019-02-05T20:19:14.594Z,2.80
2019-02-05T20:21:42.876Z,2.80
2019-02-05T20:24:10.733Z,2.80
2019-02-05T20:26:38.696Z,2.70
2019-02-05T20:29:06.416Z,2.70
2019-02-05T20:31:34.284Z,2.70
2019-02-05T20:34:02.112Z,2.70
2019-02-05T20:36:30.420Z,2.70
2019-02-05T20:38:58.686Z,2.70
2019-02-05T20:41:26.575Z,2.70
2019-02-05T20:43:54.681Z,2.60
2019-02-05T20:46:22.413Z,2.60
2019-02-05T20:48:50.404Z,2.60
2019-02-05T20:51:18.239Z,2.50
2019-02-05T20:53:46.169Z,2.50
2019-02-05T20:56:13.967Z,2.50
2019-02-05T20:58:42.410Z,2.50
2019-02-05T21:01:10.252Z,2.40
2019-02-05T21:03:38.276Z,2.40
2019-02-05T21:06:06.334Z,2.30
2019-02-05T21:08:34.348Z,2.30
2019-02-05T21:11:02.291Z,2.30
2019-02-05T21:13:30.469Z,2.30
2019-02-05T21:15:58.293Z,2.30
2019-02-05T21:18:26.640Z,2.30
2019-02-05T21:20:54.567Z,2.30
2019-02-05T21:23:22.513Z,2.30
2019-02-05T21:25:50.464Z,2.20
2019-02-05T21:28:18.457Z,2.20
2019-02-05T21:30:46.306Z,2.20
2019-02-05T21:33:14.082Z,2.20
2019-02-05T21:35:42.232Z,2.10
2019-02-05T21:38:10.170Z,2.20
2019-02-05T21:40:38.074Z,2.20
2019-02-05T21:43:05.953Z,2.20
2019-02-05T21:45:33.859Z,2.20
2019-02-05T21:48:01.728Z,2.20
2019-02-05T21:50:29.844Z,2.20
2019-02-05T21:52:58.085Z,2.10
2019-02-05T21:55:26.533Z,2.10
2019-02-05T21:57:54.673Z,2.00
2019-02-05T22:00:27.468Z,1.80
2019-02-05T22:02:57.157Z,1.60
2019-02-05T22:05:25.271Z,1.50
2019-02-05T22:07:54.523Z,1.50
2019-02-05T22:10:22.918Z,1.40
2019-02-05T22:12:50.949Z,1.30
2019-02-05T22:15:19.565Z,1.30
2019-02-05T22:17:47.519Z,1.20
2019-02-05T22:20:17.413Z,1.20
2019-02-05T22:22:46.926Z,1.20
2019-02-05T22:25:19.998Z,1.30
2019-02-05T22:27:49.422Z,1.30
2019-02-05T22:30:21.868Z,1.40
2019-02-05T22:32:51.334Z,1.40
2019-02-05T22:35:19.298Z,1.40
2019-02-05T22:37:47.766Z,1.30
2019-02-05T22:40:17.152Z,1.40
2019-02-05T22:42:46.694Z,1.50
2019-02-05T22:45:14.998Z,1.50
2019-02-05T22:47:44.615Z,1.60
2019-02-05T22:50:15.190Z,1.60
2019-02-05T22:52:44.652Z,1.60
2019-02-05T22:55:12.765Z,1.60
2019-02-05T22:57:40.963Z,1.50
2019-02-05T23:00:39.879Z,1.60
2019-02-05T23:03:09.755Z,1.50
2019-02-05T23:06:03.694Z,1.40
2019-02-05T23:08:33.182Z,1.40
2019-02-05T23:11:49.272Z,1.40
2019-02-05T23:14:18.557Z,1.40
2019-02-05T23:16:46.361Z,1.30
2019-02-05T23:19:14.462Z,1.20
2019-02-05T23:21:42.644Z,1.10
2019-02-05T23:24:10.405Z,1.00
2019-02-05T23:26:38.139Z,0.90
2019-02-05T23:29:06.149Z,0.90
2019-02-05T23:31:33.913Z,0.70
2019-02-05T23:34:01.741Z,0.60
2019-02-05T23:36:29.638Z,0.60
2019-02-05T23:38:57.714Z,0.60
2019-02-05T23:41:25.400Z,0.60
2019-02-05T23:43:53.449Z,0.50
2019-02-05T23:46:21.240Z,0.60
2019-02-05T23:48:49.074Z,0.60
2019-02-05T23:51:16.762Z,0.60
2019-02-05T23:53:44.534Z,0.80
2019-02-05T23:56:12.398Z,0.80
2019-02-05T23:58:40.230Z,0.90
